sensor_id;sensor_type;location;lat;lon;timestamp;P1;durP1;ratioP1;P2;durP2;ratioP2
67548;SDS011;54382;53.524;49.326;2022-07-23T00:00:58;9.45;;;3.85;;
67548;SDS011;54382;53.524;49.326;2022-07-23T00:03:25;9.10;;;3.72;;
67548;SDS011;54382;53.524;49.326;2022-07-23T00:05:52;11.68;;;3.95;;
67548;SDS011;54382;53.524;49.326;2022-07-23T00:08:18;10.27;;;3.95;;
67548;SDS011;54382;53.524;49.326;2022-07-23T00:10:45;8.63;;;2.72;;
67548;SDS011;54382;53.524;49.326;2022-07-23T00:13:11;4.50;;;2.25;;
67548;SDS011;54382;53.524;49.326;2022-07-23T00:15:38;8.70;;;2.30;;
67548;SDS011;54382;53.524;49.326;2022-07-23T00:18:05;8.27;;;2.10;;
67548;SDS011;54382;53.524;49.326;2022-07-23T00:20:31;5.85;;;2.00;;
67548;SDS011;54382;53.524;49.326;2022-07-23T00:22:58;7.97;;;1.87;;
67548;SDS011;54382;53.524;49.326;2022-07-23T00:25:26;3.90;;;1.92;;
67548;SDS011;54382;53.524;49.326;2022-07-23T00:27:53;5.95;;;2.03;;
67548;SDS011;54382;53.524;49.326;2022-07-23T00:30:19;6.82;;;1.98;;
67548;SDS011;54382;53.524;49.326;2022-07-23T00:32:50;7.22;;;1.75;;
67548;SDS011;54382;53.524;49.326;2022-07-23T00:35:19;10.32;;;1.90;;
67548;SDS011;54382;53.524;49.326;2022-07-23T00:37:47;4.03;;;1.58;;
67548;SDS011;54382;53.524;49.326;2022-07-23T00:40:14;11.75;;;1.92;;
67548;SDS011;54382;53.524;49.326;2022-07-23T00:42:41;7.80;;;2.00;;
67548;SDS011;54382;53.524;49.326;2022-07-23T00:45:08;4.87;;;1.60;;
67548;SDS011;54382;53.524;49.326;2022-07-23T00:47:35;3.70;;;1.65;;
67548;SDS011;54382;53.524;49.326;2022-07-23T00:50:03;7.25;;;1.40;;
67548;SDS011;54382;53.524;49.326;2022-07-23T00:52:31;10.93;;;1.48;;
67548;SDS011;54382;53.524;49.326;2022-07-23T00:54:59;4.03;;;1.65;;
67548;SDS011;54382;53.524;49.326;2022-07-23T00:57:26;5.55;;;1.55;;
67548;SDS011;54382;53.524;49.326;2022-07-23T00:59:52;2.87;;;1.45;;
67548;SDS011;54382;53.524;49.326;2022-07-23T01:02:19;7.53;;;1.52;;
67548;SDS011;54382;53.524;49.326;2022-07-23T01:04:46;5.03;;;1.35;;
67548;SDS011;54382;53.524;49.326;2022-07-23T01:07:12;5.05;;;1.12;;
67548;SDS011;54382;53.524;49.326;2022-07-23T01:09:39;8.32;;;1.30;;
67548;SDS011;54382;53.524;49.326;2022-07-23T01:12:06;9.45;;;1.33;;
67548;SDS011;54382;53.524;49.326;2022-07-23T01:14:33;2.28;;;1.05;;
67548;SDS011;54382;53.524;49.326;2022-07-23T01:17:00;2.97;;;1.37;;
67548;SDS011;54382;53.524;49.326;2022-07-23T01:19:29;3.95;;;1.00;;
67548;SDS011;54382;53.524;49.326;2022-07-23T01:21:57;5.65;;;1.55;;
67548;SDS011;54382;53.524;49.326;2022-07-23T01:24:27;4.82;;;1.05;;
67548;SDS011;54382;53.524;49.326;2022-07-23T01:26:54;2.85;;;0.90;;
67548;SDS011;54382;53.524;49.326;2022-07-23T01:29:21;2.03;;;0.90;;
67548;SDS011;54382;53.524;49.326;2022-07-23T01:31:48;2.80;;;1.15;;
67548;SDS011;54382;53.524;49.326;2022-07-23T01:34:15;3.65;;;1.00;;
67548;SDS011;54382;53.524;49.326;2022-07-23T01:36:41;4.97;;;1.20;;
67548;SDS011;54382;53.524;49.326;2022-07-23T01:39:08;7.97;;;1.10;;
67548;SDS011;54382;53.524;49.326;2022-07-23T01:41:35;3.22;;;0.90;;
67548;SDS011;54382;53.524;49.326;2022-07-23T01:44:02;2.60;;;1.00;;
67548;SDS011;54382;53.524;49.326;2022-07-23T01:46:28;3.72;;;1.10;;
67548;SDS011;54382;53.524;49.326;2022-07-23T01:48:55;4.12;;;1.20;;
67548;SDS011;54382;53.524;49.326;2022-07-23T01:51:22;3.53;;;1.00;;
67548;SDS011;54382;53.524;49.326;2022-07-23T01:53:48;4.32;;;1.10;;
67548;SDS011;54382;53.524;49.326;2022-07-23T01:56:15;1.40;;;0.70;;
67548;SDS011;54382;53.524;49.326;2022-07-23T01:58:42;4.62;;;1.00;;
67548;SDS011;54382;53.524;49.326;2022-07-23T02:01:08;4.60;;;1.00;;
67548;SDS011;54382;53.524;49.326;2022-07-23T02:03:35;3.83;;;1.00;;
67548;SDS011;54382;53.524;49.326;2022-07-23T02:06:01;8.27;;;0.93;;
67548;SDS011;54382;53.524;49.326;2022-07-23T02:08:28;4.55;;;1.00;;
67548;SDS011;54382;53.524;49.326;2022-07-23T02:10:55;2.42;;;0.85;;
67548;SDS011;54382;53.524;49.326;2022-07-23T02:13:21;5.28;;;1.27;;
67548;SDS011;54382;53.524;49.326;2022-07-23T02:15:48;5.30;;;1.10;;
67548;SDS011;54382;53.524;49.326;2022-07-23T02:18:15;5.07;;;1.52;;
67548;SDS011;54382;53.524;49.326;2022-07-23T02:20:42;7.65;;;1.70;;
67548;SDS011;54382;53.524;49.326;2022-07-23T02:23:09;4.05;;;1.10;;
67548;SDS011;54382;53.524;49.326;2022-07-23T02:25:36;5.65;;;0.93;;
67548;SDS011;54382;53.524;49.326;2022-07-23T02:28:03;2.33;;;0.90;;
67548;SDS011;54382;53.524;49.326;2022-07-23T02:30:30;14.63;;;1.40;;
67548;SDS011;54382;53.524;49.326;2022-07-23T02:32:57;4.25;;;1.02;;
67548;SDS011;54382;53.524;49.326;2022-07-23T02:35:23;6.70;;;1.30;;
67548;SDS011;54382;53.524;49.326;2022-07-23T02:37:50;2.03;;;0.93;;
67548;SDS011;54382;53.524;49.326;2022-07-23T02:40:17;6.18;;;1.30;;
67548;SDS011;54382;53.524;49.326;2022-07-23T02:42:44;6.12;;;0.98;;
67548;SDS011;54382;53.524;49.326;2022-07-23T02:45:11;2.78;;;1.10;;
67548;SDS011;54382;53.524;49.326;2022-07-23T02:47:38;2.95;;;1.10;;
67548;SDS011;54382;53.524;49.326;2022-07-23T02:50:05;5.03;;;1.20;;
67548;SDS011;54382;53.524;49.326;2022-07-23T02:52:32;4.47;;;1.00;;
67548;SDS011;54382;53.524;49.326;2022-07-23T02:54:59;2.95;;;0.90;;
67548;SDS011;54382;53.524;49.326;2022-07-23T02:57:26;2.75;;;0.90;;
67548;SDS011;54382;53.524;49.326;2022-07-23T02:59:52;5.45;;;1.10;;
67548;SDS011;54382;53.524;49.326;2022-07-23T03:02:19;3.20;;;1.10;;
67548;SDS011;54382;53.524;49.326;2022-07-23T03:04:45;6.28;;;1.10;;
67548;SDS011;54382;53.524;49.326;2022-07-23T03:07:15;4.20;;;1.25;;
67548;SDS011;54382;53.524;49.326;2022-07-23T03:09:43;2.87;;;0.98;;
67548;SDS011;54382;53.524;49.326;2022-07-23T03:12:10;2.75;;;0.93;;
67548;SDS011;54382;53.524;49.326;2022-07-23T03:14:36;3.37;;;0.98;;
67548;SDS011;54382;53.524;49.326;2022-07-23T03:17:03;3.67;;;1.37;;
67548;SDS011;54382;53.524;49.326;2022-07-23T03:19:29;8.93;;;1.60;;
67548;SDS011;54382;53.524;49.326;2022-07-23T03:21:56;8.45;;;2.35;;
67548;SDS011;54382;53.524;49.326;2022-07-23T03:24:23;11.45;;;3.70;;
67548;SDS011;54382;53.524;49.326;2022-07-23T03:27:09;18.00;;;6.05;;
67548;SDS011;54382;53.524;49.326;2022-07-23T03:29:36;19.00;;;7.65;;
67548;SDS011;54382;53.524;49.326;2022-07-23T03:32:03;29.87;;;8.32;;
67548;SDS011;54382;53.524;49.326;2022-07-23T03:34:31;32.85;;;12.02;;
67548;SDS011;54382;53.524;49.326;2022-07-23T03:36:57;37.78;;;11.57;;
67548;SDS011;54382;53.524;49.326;2022-07-23T03:39:24;30.55;;;10.57;;
67548;SDS011;54382;53.524;49.326;2022-07-23T03:41:51;34.50;;;12.98;;
67548;SDS011;54382;53.524;49.326;2022-07-23T03:44:17;40.65;;;13.50;;
67548;SDS011;54382;53.524;49.326;2022-07-23T03:46:44;31.98;;;11.63;;
67548;SDS011;54382;53.524;49.326;2022-07-23T03:49:10;32.67;;;12.50;;
67548;SDS011;54382;53.524;49.326;2022-07-23T03:51:37;39.45;;;12.65;;
67548;SDS011;54382;53.524;49.326;2022-07-23T03:54:04;30.08;;;11.38;;
67548;SDS011;54382;53.524;49.326;2022-07-23T03:56:30;35.22;;;12.05;;
67548;SDS011;54382;53.524;49.326;2022-07-23T03:58:57;41.13;;;12.88;;
67548;SDS011;54382;53.524;49.326;2022-07-23T04:01:24;36.78;;;12.75;;
67548;SDS011;54382;53.524;49.326;2022-07-23T04:03:50;34.50;;;11.07;;
67548;SDS011;54382;53.524;49.326;2022-07-23T04:06:17;34.78;;;12.37;;
67548;SDS011;54382;53.524;49.326;2022-07-23T04:08:44;35.33;;;10.73;;
67548;SDS011;54382;53.524;49.326;2022-07-23T04:11:10;30.45;;;9.18;;
67548;SDS011;54382;53.524;49.326;2022-07-23T04:13:37;41.92;;;9.43;;
67548;SDS011;54382;53.524;49.326;2022-07-23T04:16:04;42.53;;;9.13;;
67548;SDS011;54382;53.524;49.326;2022-07-23T04:18:31;34.30;;;10.18;;
67548;SDS011;54382;53.524;49.326;2022-07-23T04:20:58;31.60;;;10.85;;
67548;SDS011;54382;53.524;49.326;2022-07-23T04:23:24;44.58;;;12.40;;
67548;SDS011;54382;53.524;49.326;2022-07-23T04:25:51;47.83;;;11.45;;
67548;SDS011;54382;53.524;49.326;2022-07-23T04:28:18;46.88;;;12.77;;
67548;SDS011;54382;53.524;49.326;2022-07-23T04:30:44;47.47;;;13.65;;
67548;SDS011;54382;53.524;49.326;2022-07-23T04:33:11;60.10;;;15.65;;
67548;SDS011;54382;53.524;49.326;2022-07-23T04:35:37;45.78;;;15.60;;
67548;SDS011;54382;53.524;49.326;2022-07-23T04:38:04;49.05;;;15.85;;
67548;SDS011;54382;53.524;49.326;2022-07-23T04:40:31;52.00;;;15.88;;
67548;SDS011;54382;53.524;49.326;2022-07-23T04:42:57;62.22;;;18.33;;
67548;SDS011;54382;53.524;49.326;2022-07-23T04:45:24;64.10;;;18.37;;
67548;SDS011;54382;53.524;49.326;2022-07-23T04:47:51;51.53;;;16.05;;
67548;SDS011;54382;53.524;49.326;2022-07-23T04:50:17;58.80;;;15.43;;
67548;SDS011;54382;53.524;49.326;2022-07-23T04:52:49;63.15;;;15.75;;
67548;SDS011;54382;53.524;49.326;2022-07-23T04:55:16;56.60;;;15.18;;
67548;SDS011;54382;53.524;49.326;2022-07-23T04:57:43;53.30;;;15.38;;
67548;SDS011;54382;53.524;49.326;2022-07-23T05:00:10;56.35;;;18.05;;
67548;SDS011;54382;53.524;49.326;2022-07-23T05:02:37;54.67;;;14.98;;
67548;SDS011;54382;53.524;49.326;2022-07-23T05:05:03;44.90;;;12.60;;
67548;SDS011;54382;53.524;49.326;2022-07-23T05:07:31;56.67;;;13.23;;
67548;SDS011;54382;53.524;49.326;2022-07-23T05:09:57;59.45;;;14.43;;
67548;SDS011;54382;53.524;49.326;2022-07-23T05:12:24;66.32;;;15.25;;
67548;SDS011;54382;53.524;49.326;2022-07-23T05:14:50;61.88;;;15.00;;
67548;SDS011;54382;53.524;49.326;2022-07-23T05:17:18;58.60;;;14.87;;
67548;SDS011;54382;53.524;49.326;2022-07-23T05:19:44;69.60;;;14.35;;
67548;SDS011;54382;53.524;49.326;2022-07-23T05:22:11;52.00;;;14.55;;
67548;SDS011;54382;53.524;49.326;2022-07-23T05:24:38;46.47;;;12.37;;
67548;SDS011;54382;53.524;49.326;2022-07-23T05:27:04;45.50;;;11.43;;
67548;SDS011;54382;53.524;49.326;2022-07-23T05:29:31;59.40;;;12.35;;
67548;SDS011;54382;53.524;49.326;2022-07-23T05:31:57;50.17;;;12.32;;
67548;SDS011;54382;53.524;49.326;2022-07-23T05:34:24;45.12;;;9.88;;
67548;SDS011;54382;53.524;49.326;2022-07-23T05:36:51;34.13;;;8.07;;
67548;SDS011;54382;53.524;49.326;2022-07-23T05:39:17;25.67;;;8.13;;
67548;SDS011;54382;53.524;49.326;2022-07-23T05:41:44;22.98;;;5.32;;
67548;SDS011;54382;53.524;49.326;2022-07-23T05:44:10;18.80;;;4.80;;
67548;SDS011;54382;53.524;49.326;2022-07-23T05:46:37;28.02;;;5.37;;
67548;SDS011;54382;53.524;49.326;2022-07-23T05:49:04;22.35;;;4.10;;
67548;SDS011;54382;53.524;49.326;2022-07-23T05:51:30;18.15;;;3.12;;
67548;SDS011;54382;53.524;49.326;2022-07-23T05:53:57;23.00;;;3.37;;
67548;SDS011;54382;53.524;49.326;2022-07-23T05:56:23;12.80;;;2.42;;
67548;SDS011;54382;53.524;49.326;2022-07-23T05:58:50;11.85;;;2.37;;
67548;SDS011;54382;53.524;49.326;2022-07-23T06:01:16;15.90;;;2.40;;
67548;SDS011;54382;53.524;49.326;2022-07-23T06:03:43;14.68;;;3.42;;
67548;SDS011;54382;53.524;49.326;2022-07-23T06:06:10;15.70;;;3.55;;
67548;SDS011;54382;53.524;49.326;2022-07-23T06:08:36;17.90;;;3.33;;
67548;SDS011;54382;53.524;49.326;2022-07-23T06:11:03;22.10;;;5.75;;
67548;SDS011;54382;53.524;49.326;2022-07-23T06:13:30;21.23;;;6.53;;
67548;SDS011;54382;53.524;49.326;2022-07-23T06:15:57;30.27;;;9.15;;
67548;SDS011;54382;53.524;49.326;2022-07-23T06:18:23;23.17;;;6.12;;
67548;SDS011;54382;53.524;49.326;2022-07-23T06:20:50;30.33;;;6.40;;
67548;SDS011;54382;53.524;49.326;2022-07-23T06:23:17;10.73;;;3.25;;
67548;SDS011;54382;53.524;49.326;2022-07-23T06:25:43;16.00;;;2.65;;
67548;SDS011;54382;53.524;49.326;2022-07-23T06:28:10;11.68;;;2.10;;
67548;SDS011;54382;53.524;49.326;2022-07-23T06:30:36;5.87;;;1.30;;
67548;SDS011;54382;53.524;49.326;2022-07-23T06:33:03;5.30;;;1.20;;
67548;SDS011;54382;53.524;49.326;2022-07-23T06:35:30;11.35;;;1.08;;
67548;SDS011;54382;53.524;49.326;2022-07-23T06:37:56;5.28;;;0.80;;
67548;SDS011;54382;53.524;49.326;2022-07-23T06:40:23;3.42;;;0.95;;
67548;SDS011;54382;53.524;49.326;2022-07-23T06:42:49;14.73;;;1.08;;
67548;SDS011;54382;53.524;49.326;2022-07-23T06:45:17;14.10;;;1.23;;
67548;SDS011;54382;53.524;49.326;2022-07-23T06:47:43;13.35;;;1.12;;
67548;SDS011;54382;53.524;49.326;2022-07-23T06:50:10;18.73;;;1.73;;
67548;SDS011;54382;53.524;49.326;2022-07-23T06:52:36;11.90;;;1.20;;
67548;SDS011;54382;53.524;49.326;2022-07-23T06:55:03;13.68;;;1.83;;
67548;SDS011;54382;53.524;49.326;2022-07-23T06:57:30;12.77;;;1.45;;
67548;SDS011;54382;53.524;49.326;2022-07-23T06:59:57;11.70;;;1.55;;
67548;SDS011;54382;53.524;49.326;2022-07-23T07:02:24;11.85;;;1.30;;
67548;SDS011;54382;53.524;49.326;2022-07-23T07:04:50;13.48;;;1.10;;
67548;SDS011;54382;53.524;49.326;2022-07-23T07:07:18;3.05;;;1.15;;
67548;SDS011;54382;53.524;49.326;2022-07-23T07:09:45;20.37;;;1.95;;
67548;SDS011;54382;53.524;49.326;2022-07-23T07:12:11;5.10;;;1.15;;
67548;SDS011;54382;53.524;49.326;2022-07-23T07:14:38;12.30;;;1.20;;
67548;SDS011;54382;53.524;49.326;2022-07-23T07:17:05;12.30;;;1.52;;
67548;SDS011;54382;53.524;49.326;2022-07-23T07:19:31;11.48;;;1.10;;
67548;SDS011;54382;53.524;49.326;2022-07-23T07:21:58;9.93;;;1.35;;
67548;SDS011;54382;53.524;49.326;2022-07-23T07:24:25;5.37;;;0.88;;
67548;SDS011;54382;53.524;49.326;2022-07-23T07:26:51;2.87;;;0.80;;
67548;SDS011;54382;53.524;49.326;2022-07-23T07:29:18;9.85;;;1.02;;
67548;SDS011;54382;53.524;49.326;2022-07-23T07:31:44;7.37;;;1.62;;
67548;SDS011;54382;53.524;49.326;2022-07-23T07:34:11;5.47;;;1.00;;
67548;SDS011;54382;53.524;49.326;2022-07-23T07:36:38;7.50;;;0.88;;
67548;SDS011;54382;53.524;49.326;2022-07-23T07:39:05;17.02;;;1.60;;
67548;SDS011;54382;53.524;49.326;2022-07-23T07:41:32;5.68;;;0.85;;
67548;SDS011;54382;53.524;49.326;2022-07-23T07:43:58;8.40;;;0.90;;
67548;SDS011;54382;53.524;49.326;2022-07-23T07:46:25;13.75;;;1.30;;
67548;SDS011;54382;53.524;49.326;2022-07-23T07:48:53;10.68;;;1.50;;
67548;SDS011;54382;53.524;49.326;2022-07-23T07:51:19;10.65;;;1.50;;
67548;SDS011;54382;53.524;49.326;2022-07-23T07:53:46;17.10;;;1.00;;
67548;SDS011;54382;53.524;49.326;2022-07-23T07:56:13;11.93;;;1.10;;
67548;SDS011;54382;53.524;49.326;2022-07-23T07:58:40;8.05;;;1.25;;
67548;SDS011;54382;53.524;49.326;2022-07-23T08:01:06;12.43;;;0.90;;
67548;SDS011;54382;53.524;49.326;2022-07-23T08:03:33;12.48;;;1.50;;
67548;SDS011;54382;53.524;49.326;2022-07-23T08:06:00;11.82;;;1.40;;
67548;SDS011;54382;53.524;49.326;2022-07-23T08:08:26;7.12;;;0.98;;
67548;SDS011;54382;53.524;49.326;2022-07-23T08:10:53;11.45;;;1.23;;
67548;SDS011;54382;53.524;49.326;2022-07-23T08:13:20;6.53;;;1.10;;
67548;SDS011;54382;53.524;49.326;2022-07-23T08:15:46;14.98;;;1.70;;
67548;SDS011;54382;53.524;49.326;2022-07-23T08:18:14;8.18;;;1.50;;
67548;SDS011;54382;53.524;49.326;2022-07-23T08:20:41;10.77;;;1.50;;
67548;SDS011;54382;53.524;49.326;2022-07-23T08:23:10;3.37;;;0.95;;
67548;SDS011;54382;53.524;49.326;2022-07-23T08:25:38;12.82;;;1.52;;
67548;SDS011;54382;53.524;49.326;2022-07-23T08:28:08;11.63;;;1.50;;
67548;SDS011;54382;53.524;49.326;2022-07-23T08:30:37;15.52;;;1.48;;
67548;SDS011;54382;53.524;49.326;2022-07-23T08:33:07;13.05;;;1.92;;
67548;SDS011;54382;53.524;49.326;2022-07-23T08:35:37;7.80;;;1.45;;
67548;SDS011;54382;53.524;49.326;2022-07-23T08:38:17;7.55;;;1.33;;
67548;SDS011;54382;53.524;49.326;2022-07-23T08:40:46;10.95;;;1.77;;
67548;SDS011;54382;53.524;49.326;2022-07-23T08:43:17;11.80;;;1.50;;
67548;SDS011;54382;53.524;49.326;2022-07-23T08:45:50;12.65;;;1.50;;
67548;SDS011;54382;53.524;49.326;2022-07-23T08:48:22;19.70;;;2.05;;
67548;SDS011;54382;53.524;49.326;2022-07-23T08:50:52;12.25;;;1.60;;
67548;SDS011;54382;53.524;49.326;2022-07-23T08:53:23;8.68;;;1.50;;
67548;SDS011;54382;53.524;49.326;2022-07-23T08:55:52;15.32;;;1.45;;
67548;SDS011;54382;53.524;49.326;2022-07-23T08:58:21;8.27;;;1.00;;
67548;SDS011;54382;53.524;49.326;2022-07-23T09:00:48;21.85;;;1.33;;
67548;SDS011;54382;53.524;49.326;2022-07-23T09:03:21;13.32;;;1.10;;
67548;SDS011;54382;53.524;49.326;2022-07-23T09:05:57;3.70;;;0.82;;
67548;SDS011;54382;53.524;49.326;2022-07-23T09:11:13;3.45;;;0.70;;
67548;SDS011;54382;53.524;49.326;2022-07-23T09:16:24;5.60;;;0.65;;
67548;SDS011;54382;53.524;49.326;2022-07-23T09:18:58;4.40;;;0.90;;
67548;SDS011;54382;53.524;49.326;2022-07-23T09:21:30;6.82;;;1.15;;
67548;SDS011;54382;53.524;49.326;2022-07-23T09:24:02;5.25;;;1.10;;
67548;SDS011;54382;53.524;49.326;2022-07-23T09:26:31;12.50;;;1.30;;
67548;SDS011;54382;53.524;49.326;2022-07-23T09:34:26;11.05;;;1.48;;
67548;SDS011;54382;53.524;49.326;2022-07-23T09:37:14;8.63;;;1.20;;
67548;SDS011;54382;53.524;49.326;2022-07-23T09:44:44;8.02;;;1.25;;
67548;SDS011;54382;53.524;49.326;2022-07-23T09:47:16;9.00;;;1.15;;
67548;SDS011;54382;53.524;49.326;2022-07-23T09:50:00;4.78;;;1.10;;
67548;SDS011;54382;53.524;49.326;2022-07-23T09:52:43;4.55;;;0.93;;
67548;SDS011;54382;53.524;49.326;2022-07-23T09:55:15;7.00;;;1.23;;
67548;SDS011;54382;53.524;49.326;2022-07-23T09:57:43;6.57;;;1.08;;
67548;SDS011;54382;53.524;49.326;2022-07-23T10:00:21;5.68;;;0.90;;
67548;SDS011;54382;53.524;49.326;2022-07-23T10:02:49;4.45;;;0.90;;
67548;SDS011;54382;53.524;49.326;2022-07-23T10:05:17;3.92;;;0.70;;
67548;SDS011;54382;53.524;49.326;2022-07-23T10:07:45;2.62;;;0.98;;
67548;SDS011;54382;53.524;49.326;2022-07-23T10:10:12;2.00;;;0.70;;
67548;SDS011;54382;53.524;49.326;2022-07-23T10:12:42;10.63;;;0.80;;
67548;SDS011;54382;53.524;49.326;2022-07-23T10:15:10;10.43;;;1.33;;
67548;SDS011;54382;53.524;49.326;2022-07-23T10:17:36;6.78;;;0.62;;
67548;SDS011;54382;53.524;49.326;2022-07-23T10:20:03;8.82;;;1.30;;
67548;SDS011;54382;53.524;49.326;2022-07-23T10:22:32;5.62;;;0.70;;
67548;SDS011;54382;53.524;49.326;2022-07-23T10:31:08;7.55;;;0.90;;
67548;SDS011;54382;53.524;49.326;2022-07-23T10:34:28;6.18;;;1.23;;
67548;SDS011;54382;53.524;49.326;2022-07-23T10:37:01;5.05;;;0.95;;
67548;SDS011;54382;53.524;49.326;2022-07-23T10:39:42;0.82;;;0.35;;
67548;SDS011;54382;53.524;49.326;2022-07-23T10:42:10;5.62;;;0.90;;
67548;SDS011;54382;53.524;49.326;2022-07-23T10:44:47;7.95;;;1.20;;
67548;SDS011;54382;53.524;49.326;2022-07-23T10:47:21;7.75;;;0.65;;
67548;SDS011;54382;53.524;49.326;2022-07-23T10:50:17;3.30;;;1.08;;
67548;SDS011;54382;53.524;49.326;2022-07-23T10:53:29;7.05;;;2.40;;
67548;SDS011;54382;53.524;49.326;2022-07-23T10:55:49;15.98;;;2.90;;
67548;SDS011;54382;53.524;49.326;2022-07-23T10:58:18;11.45;;;3.10;;
67548;SDS011;54382;53.524;49.326;2022-07-23T11:04:01;6.07;;;2.33;;
67548;SDS011;54382;53.524;49.326;2022-07-23T11:15:24;20.45;;;6.85;;
67548;SDS011;54382;53.524;49.326;2022-07-23T11:17:36;24.02;;;4.97;;
67548;SDS011;54382;53.524;49.326;2022-07-23T11:25:02;19.67;;;5.78;;
67548;SDS011;54382;53.524;49.326;2022-07-23T11:27:45;19.65;;;4.87;;
67548;SDS011;54382;53.524;49.326;2022-07-23T11:30:55;22.40;;;5.93;;
67548;SDS011;54382;53.524;49.326;2022-07-23T11:35:38;19.52;;;4.87;;
67548;SDS011;54382;53.524;49.326;2022-07-23T11:38:16;29.50;;;5.27;;
67548;SDS011;54382;53.524;49.326;2022-07-23T11:40:47;22.45;;;5.32;;
67548;SDS011;54382;53.524;49.326;2022-07-23T11:43:24;17.08;;;4.55;;
67548;SDS011;54382;53.524;49.326;2022-07-23T11:45:53;15.05;;;4.50;;
67548;SDS011;54382;53.524;49.326;2022-07-23T11:48:28;17.12;;;4.62;;
67548;SDS011;54382;53.524;49.326;2022-07-23T11:50:57;20.42;;;4.60;;
67548;SDS011;54382;53.524;49.326;2022-07-23T11:53:28;22.17;;;4.50;;
67548;SDS011;54382;53.524;49.326;2022-07-23T11:56:08;16.80;;;3.60;;
67548;SDS011;54382;53.524;49.326;2022-07-23T11:58:36;13.68;;;3.78;;
67548;SDS011;54382;53.524;49.326;2022-07-23T12:01:04;16.83;;;3.75;;
67548;SDS011;54382;53.524;49.326;2022-07-23T12:03:31;13.60;;;3.72;;
67548;SDS011;54382;53.524;49.326;2022-07-23T12:05:58;17.00;;;3.08;;
67548;SDS011;54382;53.524;49.326;2022-07-23T12:08:26;18.98;;;3.65;;
67548;SDS011;54382;53.524;49.326;2022-07-23T12:10:52;8.15;;;2.25;;
67548;SDS011;54382;53.524;49.326;2022-07-23T12:13:19;11.27;;;2.20;;
67548;SDS011;54382;53.524;49.326;2022-07-23T12:15:50;13.10;;;2.50;;
67548;SDS011;54382;53.524;49.326;2022-07-23T12:18:20;12.18;;;2.30;;
67548;SDS011;54382;53.524;49.326;2022-07-23T12:20:50;8.93;;;1.70;;
67548;SDS011;54382;53.524;49.326;2022-07-23T12:23:26;11.23;;;1.70;;
67548;SDS011;54382;53.524;49.326;2022-07-23T12:25:53;12.45;;;1.67;;
67548;SDS011;54382;53.524;49.326;2022-07-23T12:28:30;16.00;;;2.20;;
67548;SDS011;54382;53.524;49.326;2022-07-23T12:30:58;15.32;;;2.22;;
67548;SDS011;54382;53.524;49.326;2022-07-23T12:36:06;6.12;;;1.50;;
67548;SDS011;54382;53.524;49.326;2022-07-23T12:38:41;6.68;;;1.45;;
67548;SDS011;54382;53.524;49.326;2022-07-23T12:41:17;11.45;;;1.95;;
67548;SDS011;54382;53.524;49.326;2022-07-23T12:43:44;11.73;;;1.87;;
67548;SDS011;54382;53.524;49.326;2022-07-23T12:46:12;15.27;;;1.55;;
67548;SDS011;54382;53.524;49.326;2022-07-23T12:51:21;5.45;;;1.10;;
67548;SDS011;54382;53.524;49.326;2022-07-23T12:53:56;4.80;;;0.82;;
67548;SDS011;54382;53.524;49.326;2022-07-23T12:56:30;15.57;;;1.42;;
67548;SDS011;54382;53.524;49.326;2022-07-23T12:59:09;6.60;;;1.20;;
67548;SDS011;54382;53.524;49.326;2022-07-23T13:01:44;10.85;;;1.30;;
67548;SDS011;54382;53.524;49.326;2022-07-23T13:04:23;3.70;;;0.73;;
67548;SDS011;54382;53.524;49.326;2022-07-23T13:06:52;4.97;;;1.00;;
67548;SDS011;54382;53.524;49.326;2022-07-23T13:09:23;5.18;;;1.10;;
67548;SDS011;54382;53.524;49.326;2022-07-23T13:11:53;9.48;;;0.82;;
67548;SDS011;54382;53.524;49.326;2022-07-23T13:14:21;6.78;;;0.95;;
67548;SDS011;54382;53.524;49.326;2022-07-23T13:16:49;10.43;;;0.95;;
67548;SDS011;54382;53.524;49.326;2022-07-23T13:19:17;7.03;;;1.17;;
67548;SDS011;54382;53.524;49.326;2022-07-23T13:21:47;3.12;;;0.93;;
67548;SDS011;54382;53.524;49.326;2022-07-23T13:24:14;3.08;;;0.88;;
67548;SDS011;54382;53.524;49.326;2022-07-23T13:26:42;7.87;;;0.82;;
67548;SDS011;54382;53.524;49.326;2022-07-23T13:29:08;6.75;;;1.20;;
67548;SDS011;54382;53.524;49.326;2022-07-23T13:31:35;1.87;;;0.73;;
67548;SDS011;54382;53.524;49.326;2022-07-23T13:34:03;5.70;;;1.45;;
67548;SDS011;54382;53.524;49.326;2022-07-23T13:36:33;10.80;;;1.50;;
67548;SDS011;54382;53.524;49.326;2022-07-23T13:39:02;10.80;;;1.73;;
67548;SDS011;54382;53.524;49.326;2022-07-23T13:41:30;8.18;;;1.20;;
67548;SDS011;54382;53.524;49.326;2022-07-23T13:43:56;8.40;;;1.65;;
67548;SDS011;54382;53.524;49.326;2022-07-23T13:46:26;29.70;;;2.00;;
67548;SDS011;54382;53.524;49.326;2022-07-23T13:48:53;14.38;;;1.48;;
67548;SDS011;54382;53.524;49.326;2022-07-23T13:51:20;6.03;;;1.30;;
67548;SDS011;54382;53.524;49.326;2022-07-23T13:53:46;11.27;;;1.80;;
67548;SDS011;54382;53.524;49.326;2022-07-23T13:56:13;12.80;;;1.73;;
67548;SDS011;54382;53.524;49.326;2022-07-23T13:58:39;5.07;;;1.70;;
67548;SDS011;54382;53.524;49.326;2022-07-23T14:01:06;6.57;;;2.10;;
67548;SDS011;54382;53.524;49.326;2022-07-23T14:03:33;7.87;;;2.47;;
67548;SDS011;54382;53.524;49.326;2022-07-23T14:06:00;35.28;;;3.80;;
67548;SDS011;54382;53.524;49.326;2022-07-23T14:08:26;11.25;;;3.67;;
67548;SDS011;54382;53.524;49.326;2022-07-23T14:10:53;10.20;;;3.05;;
67548;SDS011;54382;53.524;49.326;2022-07-23T14:13:20;17.80;;;3.50;;
67548;SDS011;54382;53.524;49.326;2022-07-23T14:15:46;27.48;;;4.10;;
67548;SDS011;54382;53.524;49.326;2022-07-23T14:18:15;16.85;;;3.20;;
67548;SDS011;54382;53.524;49.326;2022-07-23T14:20:42;11.02;;;3.00;;
67548;SDS011;54382;53.524;49.326;2022-07-23T14:23:09;16.80;;;3.92;;
67548;SDS011;54382;53.524;49.326;2022-07-23T14:25:35;13.32;;;3.90;;
67548;SDS011;54382;53.524;49.326;2022-07-23T14:28:02;13.80;;;3.75;;
67548;SDS011;54382;53.524;49.326;2022-07-23T14:30:29;14.68;;;3.45;;
67548;SDS011;54382;53.524;49.326;2022-07-23T14:32:56;23.90;;;2.97;;
67548;SDS011;54382;53.524;49.326;2022-07-23T14:35:22;16.27;;;3.37;;
67548;SDS011;54382;53.524;49.326;2022-07-23T14:37:49;6.90;;;2.40;;
67548;SDS011;54382;53.524;49.326;2022-07-23T14:40:18;21.12;;;3.50;;
67548;SDS011;54382;53.524;49.326;2022-07-23T14:42:44;12.00;;;3.45;;
67548;SDS011;54382;53.524;49.326;2022-07-23T14:45:11;14.05;;;2.75;;
67548;SDS011;54382;53.524;49.326;2022-07-23T14:47:38;10.90;;;3.08;;
67548;SDS011;54382;53.524;49.326;2022-07-23T14:50:04;23.50;;;2.90;;
67548;SDS011;54382;53.524;49.326;2022-07-23T14:52:32;14.02;;;2.62;;
67548;SDS011;54382;53.524;49.326;2022-07-23T14:54:59;7.55;;;2.58;;
67548;SDS011;54382;53.524;49.326;2022-07-23T14:57:25;16.42;;;2.85;;
67548;SDS011;54382;53.524;49.326;2022-07-23T14:59:52;6.97;;;2.00;;
67548;SDS011;54382;53.524;49.326;2022-07-23T15:02:19;15.60;;;2.20;;
67548;SDS011;54382;53.524;49.326;2022-07-23T15:04:45;43.87;;;2.90;;
67548;SDS011;54382;53.524;49.326;2022-07-23T15:07:12;9.90;;;2.00;;
67548;SDS011;54382;53.524;49.326;2022-07-23T15:09:39;8.45;;;2.40;;
67548;SDS011;54382;53.524;49.326;2022-07-23T15:12:05;18.85;;;2.28;;
67548;SDS011;54382;53.524;49.326;2022-07-23T15:14:32;10.38;;;1.77;;
67548;SDS011;54382;53.524;49.326;2022-07-23T15:16:59;15.02;;;2.53;;
67548;SDS011;54382;53.524;49.326;2022-07-23T15:19:25;17.42;;;2.15;;